createdAt,value
2023-11-16T00:00:47.166Z,100964.34
2023-11-16T00:03:38.954Z,100957.91
2023-11-16T00:06:11.952Z,100958.09
2023-11-16T00:08:40.946Z,100963.19
2023-11-16T00:11:10.164Z,100946.75
2023-11-16T00:13:39.050Z,100957.06
2023-11-16T00:17:18.494Z,100959.63
2023-11-16T00:19:51.178Z,100966.72
2023-11-16T00:22:20.406Z,100964.34
2023-11-16T00:24:49.348Z,100964.88
2023-11-16T00:27:19.635Z,100970.94
2023-11-16T00:29:50.263Z,100967.06
2023-11-16T00:32:21.631Z,100970.28
2023-11-16T00:34:51.703Z,100960.63
2023-11-16T00:37:21.088Z,100970.47
2023-11-16T00:39:50.751Z,100968.09
2023-11-16T00:42:20.059Z,100964.84
2023-11-16T00:44:49.151Z,100965.38
2023-11-16T00:47:20.034Z,100971.81
2023-11-16T00:49:48.815Z,100969.91
2023-11-16T00:52:21.481Z,100946.50
2023-11-16T00:54:50.478Z,100944.66
2023-11-16T00:57:21.740Z,100974.66
2023-11-16T00:59:51.005Z,100964.97
2023-11-16T01:02:23.082Z,100949.69
2023-11-16T01:04:51.747Z,100972.72
2023-11-16T01:07:22.896Z,100974.59
2023-11-16T01:09:52.231Z,100950.97
2023-11-16T01:12:21.478Z,100973.19
2023-11-16T01:14:54.115Z,100981.31
2023-11-16T01:17:28.106Z,100977.47
2023-11-16T01:19:58.322Z,100977.16
2023-11-16T01:22:41.861Z,100985.25
2023-11-16T01:25:16.892Z,100986.09
2023-11-16T01:27:52.554Z,100986.09
2023-11-16T01:30:21.381Z,100989.97
2023-11-16T01:32:50.480Z,100984.69
2023-11-16T01:35:20.736Z,100969.44
2023-11-16T01:37:53.525Z,100983.34
2023-11-16T01:40:28.992Z,100985.88
2023-11-16T01:42:58.985Z,100994.38
2023-11-16T01:45:32.539Z,100998.72
2023-11-16T01:48:03.756Z,100993.88
2023-11-16T01:50:34.249Z,100977.72
2023-11-16T01:53:10.747Z,100995.38
2023-11-16T01:55:42.196Z,100991.09
2023-11-16T01:58:13.721Z,100986.16
2023-11-16T02:00:44.565Z,100995.84
2023-11-16T02:03:16.282Z,100993.97
2023-11-16T02:05:48.411Z,100987.19
2023-11-16T02:08:21.623Z,100992.28
2023-11-16T02:10:50.569Z,100990.91
2023-11-16T02:13:22.109Z,100993.59
2023-11-16T02:15:51.813Z,100973.28
2023-11-16T02:18:21.261Z,100984.75
2023-11-16T02:20:50.860Z,100963.78
2023-11-16T02:23:25.013Z,100959.88
2023-11-16T02:25:56.159Z,100983.72
2023-11-16T02:28:28.153Z,100974.88
2023-11-16T02:30:59.104Z,100975.91
2023-11-16T02:33:29.008Z,100992.88
2023-11-16T02:35:58.732Z,100967.03
2023-11-16T02:38:29.434Z,100999.06
2023-11-16T02:41:00.668Z,100989.56
2023-11-16T02:43:31.013Z,100985.50
2023-11-16T02:45:59.824Z,100993.94
2023-11-16T02:48:29.149Z,100984.28
2023-11-16T02:50:58.495Z,100978.88
2023-11-16T02:53:33.826Z,100983.13
2023-11-16T02:56:04.622Z,100984.13
2023-11-16T02:58:34.912Z,100993.25
2023-11-16T03:01:04.109Z,100992.03
2023-11-16T03:03:33.525Z,100990.19
2023-11-16T03:06:04.958Z,100987.13
2023-11-16T03:08:35.401Z,100982.22
2023-11-16T03:11:06.963Z,100995.09
2023-11-16T03:13:36.177Z,100995.81
2023-11-16T03:16:07.471Z,100947.56
2023-11-16T03:18:37.196Z,100993.19
2023-11-16T03:21:07.276Z,100945.31
2023-11-16T03:23:37.498Z,100999.25
2023-11-16T03:26:07.217Z,101007.19
2023-11-16T03:28:37.345Z,101012.59
2023-11-16T03:31:06.560Z,101023.75
2023-11-16T03:33:38.603Z,101022.38
2023-11-16T03:36:08.029Z,101017.91
2023-11-16T03:38:39.000Z,101019.78
2023-11-16T03:41:07.889Z,101024.72
2023-11-16T03:43:36.817Z,101019.84
2023-11-16T03:46:09.897Z,101020.34
2023-11-16T03:48:39.536Z,101024.75
2023-11-16T03:51:08.802Z,101020.34
2023-11-16T03:53:40.046Z,101022.06
2023-11-16T03:56:11.342Z,101015.28
2023-11-16T03:58:40.475Z,101010.44
2023-11-16T04:01:10.146Z,101028.56
2023-11-16T04:03:39.608Z,101029.28
2023-11-16T04:06:09.564Z,101038.63
2023-11-16T04:08:40.724Z,101027.47
2023-11-16T04:11:11.271Z,101031.41
2023-11-16T04:13:40.348Z,101027.69
2023-11-16T04:16:21.734Z,101033.31
2023-11-16T04:18:51.683Z,101034.00
2023-11-16T04:21:21.286Z,101033.84
2023-11-16T04:23:53.766Z,101033.63
2023-11-16T04:26:23.293Z,101033.25
2023-11-16T04:28:56.548Z,101030.56
2023-11-16T04:31:28.064Z,101015.69
2023-11-16T04:34:00.609Z,101023.13
2023-11-16T04:36:33.330Z,101017.16
2023-11-16T04:39:05.190Z,101011.47
2023-11-16T04:41:41.175Z,101020.56
2023-11-16T04:44:10.916Z,100996.38
2023-11-16T04:46:47.469Z,101010.81
2023-11-16T04:49:17.526Z,101015.38
2023-11-16T04:51:48.334Z,101011.31
2023-11-16T04:54:35.270Z,101010.94
2023-11-16T04:57:19.250Z,101006.69
2023-11-16T05:00:11.264Z,100998.56
2023-11-16T05:02:40.870Z,100979.72
2023-11-16T05:05:12.257Z,100934.22
2023-11-16T05:07:41.589Z,100986.03
2023-11-16T05:10:12.927Z,100904.38
2023-11-16T05:12:41.987Z,100981.25
2023-11-16T05:15:12.372Z,100986.88
2023-11-16T05:17:41.615Z,100984.66
2023-11-16T05:20:11.602Z,100993.75
2023-11-16T05:22:40.217Z,100991.50
2023-11-16T05:25:11.676Z,100995.50
2023-11-16T05:27:42.087Z,100994.84
2023-11-16T05:30:18.232Z,100983.94
2023-11-16T05:32:50.190Z,100991.44
2023-11-16T05:35:21.101Z,100987.34
2023-11-16T05:37:50.057Z,100978.16
2023-11-16T05:40:20.362Z,100990.22
2023-11-16T05:42:50.671Z,100993.75
2023-11-16T05:45:20.135Z,100989.44
2023-11-16T05:47:50.171Z,100992.88
2023-11-16T05:50:25.598Z,100987.22
2023-11-16T05:52:54.748Z,100982.31
2023-11-16T05:55:27.499Z,100989.59
2023-11-16T05:58:02.587Z,100974.84
2023-11-16T06:00:33.030Z,100984.25
2023-11-16T06:03:02.297Z,100984.31
2023-11-16T06:05:32.262Z,100955.66
2023-11-16T06:08:01.763Z,100982.47
2023-11-16T06:10:31.685Z,100981.94
2023-11-16T06:13:02.522Z,100983.66
2023-11-16T06:15:31.936Z,100974.81
2023-11-16T06:18:02.673Z,100987.72
2023-11-16T06:20:32.490Z,100997.84
2023-11-16T06:23:01.055Z,100982.44
2023-11-16T06:25:30.253Z,100985.44
2023-11-16T06:27:59.465Z,100988.16
2023-11-16T06:30:30.618Z,100986.00
2023-11-16T06:32:59.356Z,100989.72
2023-11-16T06:35:28.289Z,100961.91
2023-11-16T06:37:57.943Z,100998.41
2023-11-16T06:40:26.940Z,100997.75
2023-11-16T06:42:58.178Z,101004.69
2023-11-16T06:45:28.417Z,101006.25
2023-11-16T06:48:01.864Z,101000.00
2023-11-16T06:50:35.333Z,101006.84
2023-11-16T06:53:06.759Z,101008.06
2023-11-16T06:55:35.897Z,100990.84
2023-11-16T06:58:08.015Z,100998.34
2023-11-16T07:00:39.969Z,100985.00
2023-11-16T07:03:11.082Z,100967.53
2023-11-16T07:05:40.209Z,100982.28
2023-11-16T07:08:09.430Z,100984.00
2023-11-16T07:10:38.689Z,100963.50
2023-11-16T07:13:07.723Z,100970.97
2023-11-16T07:15:38.918Z,100978.59
2023-11-16T07:18:09.152Z,100970.78
2023-11-16T07:20:44.612Z,100977.25
2023-11-16T07:23:13.907Z,100980.13
2023-11-16T07:25:45.347Z,100974.84
2023-11-16T07:28:15.382Z,100976.72
2023-11-16T07:30:47.154Z,100962.69
2023-11-16T07:33:16.715Z,100979.09
2023-11-16T07:35:48.297Z,100976.19
2023-11-16T07:38:20.021Z,100990.78
2023-11-16T07:40:49.190Z,100981.13
2023-11-16T07:43:18.016Z,100983.78
2023-11-16T07:45:49.339Z,100976.28
2023-11-16T07:48:18.553Z,100993.91
2023-11-16T07:50:48.729Z,100983.94
2023-11-16T07:53:18.295Z,100975.00
2023-11-16T07:55:50.585Z,100985.94
2023-11-16T07:58:27.911Z,100981.72
2023-11-16T08:01:05.479Z,100975.09
2023-11-16T08:03:45.758Z,100937.84
2023-11-16T08:06:17.858Z,100960.94
2023-11-16T08:08:48.532Z,100969.22
2023-11-16T08:11:17.967Z,100927.63
2023-11-16T08:13:47.472Z,100958.38
2023-11-16T08:16:22.655Z,100946.63
2023-11-16T08:18:51.678Z,100965.47
2023-11-16T08:21:22.611Z,100954.31
2023-11-16T08:23:52.528Z,100952.06
2023-11-16T08:26:24.907Z,100954.31
2023-11-16T08:28:56.146Z,100945.09
2023-11-16T08:31:28.176Z,100953.75
2023-11-16T08:33:56.911Z,100956.19
2023-11-16T08:36:27.943Z,100936.84
2023-11-16T08:38:57.545Z,100953.84
2023-11-16T08:41:27.332Z,100950.72
2023-11-16T08:43:56.780Z,100944.00
2023-11-16T08:46:32.306Z,100927.16
2023-11-16T08:49:01.177Z,100932.06
2023-11-16T08:51:31.903Z,100925.03
2023-11-16T09:13:42.737Z,100915.09
2023-11-16T09:16:11.852Z,100895.09
2023-11-16T09:18:43.199Z,100894.69
2023-11-16T09:21:16.400Z,100903.75
2023-11-16T09:23:45.353Z,100909.03
2023-11-16T09:26:14.294Z,100889.47
2023-11-16T09:28:57.917Z,100904.19
2023-11-16T09:31:31.012Z,100891.69
2023-11-16T09:34:01.872Z,100918.72
2023-11-16T09:36:31.304Z,100912.88
2023-11-16T09:39:00.830Z,100904.34
2023-11-16T09:41:30.123Z,100911.78
2023-11-16T09:44:03.321Z,100903.78
2023-11-16T09:46:33.629Z,100904.00
2023-11-16T09:49:07.479Z,100889.59
2023-11-16T09:51:40.771Z,100878.63
2023-11-16T09:54:11.230Z,100878.25
2023-11-16T09:56:47.468Z,100863.13
2023-11-16T09:59:28.895Z,100868.63
2023-11-16T10:02:11.312Z,100884.34
2023-11-16T10:04:43.330Z,100871.16
2023-11-16T10:07:19.774Z,100866.25
2023-11-16T10:09:48.983Z,100864.75
2023-11-16T10:12:18.617Z,100861.50
2023-11-16T10:14:53.130Z,100870.53
2023-11-16T10:17:26.599Z,100856.78
2023-11-16T10:19:55.460Z,100857.03
2023-11-16T10:22:24.443Z,100850.81
2023-11-16T10:24:56.918Z,100851.94
2023-11-16T10:27:33.825Z,100843.34
2023-11-16T10:30:05.716Z,100825.84
2023-11-16T10:32:37.858Z,100820.94
2023-11-16T10:35:12.549Z,100824.63
2023-11-16T10:37:46.028Z,100848.19
2023-11-16T10:40:15.246Z,100843.22
2023-11-16T10:42:47.070Z,100857.50
2023-11-16T10:45:31.454Z,100843.69
2023-11-16T10:48:06.671Z,100845.31
2023-11-16T10:50:35.864Z,100853.25
2023-11-16T10:53:08.447Z,100849.47
2023-11-16T10:55:38.433Z,100860.38
2023-11-16T10:58:07.505Z,100849.53
2023-11-16T11:00:40.729Z,100841.31
2023-11-16T11:03:12.312Z,100843.19
2023-11-16T11:05:43.382Z,100842.97
2023-11-16T11:08:19.025Z,100818.06
2023-11-16T11:10:48.794Z,100839.28
2023-11-16T11:13:28.003Z,100835.84
2023-11-16T11:15:58.993Z,100836.91
2023-11-16T11:18:29.335Z,100840.88
2023-11-16T11:21:09.308Z,100846.22
2023-11-16T11:23:39.672Z,100836.13
2023-11-16T11:26:09.146Z,100826.69
2023-11-16T11:28:40.193Z,100828.72
2023-11-16T11:31:12.298Z,100820.16
2023-11-16T11:33:43.600Z,100824.19
2023-11-16T11:36:23.903Z,100828.63
2023-11-16T11:38:54.765Z,100823.19
2023-11-16T11:41:25.306Z,100826.69
2023-11-16T11:43:54.644Z,100798.13
2023-11-16T11:46:24.636Z,100801.50
2023-11-16T11:48:55.492Z,100808.97
2023-11-16T11:51:29.913Z,100821.69
2023-11-16T11:53:58.993Z,100822.97
2023-11-16T11:56:28.291Z,100797.28
2023-11-16T11:58:59.840Z,100773.84
2023-11-16T12:01:29.851Z,100809.06
2023-11-16T12:04:10.185Z,100777.53
2023-11-16T12:06:45.896Z,100802.41
2023-11-16T12:09:16.976Z,100807.44
2023-11-16T12:11:45.616Z,100799.19
2023-11-16T12:14:15.590Z,100802.97
2023-11-16T12:16:48.809Z,100803.00
2023-11-16T12:19:23.331Z,100784.47
2023-11-16T12:21:53.024Z,100785.88
2023-11-16T12:24:25.884Z,100785.09
2023-11-16T12:26:54.798Z,100774.19
2023-11-16T12:29:28.152Z,100774.19
2023-11-16T12:32:01.141Z,100769.78
2023-11-16T12:34:30.223Z,100762.84
2023-11-16T12:36:59.787Z,100764.78
2023-11-16T12:39:29.021Z,100770.19
2023-11-16T12:41:58.567Z,100772.47
2023-11-16T12:44:27.761Z,100760.38
2023-11-16T12:46:59.283Z,100763.16
2023-11-16T12:49:28.819Z,100768.56
2023-11-16T12:51:58.082Z,100768.69
2023-11-16T12:54:27.249Z,100758.84
2023-11-16T12:56:56.882Z,100754.66
2023-11-16T12:59:25.904Z,100756.94
2023-11-16T13:01:54.832Z,100747.59
2023-11-16T13:04:26.626Z,100745.44
2023-11-16T13:06:57.003Z,100745.06
2023-11-16T13:09:26.381Z,100727.06
2023-11-16T13:12:02.591Z,100740.91
2023-11-16T13:14:37.589Z,100718.13
2023-11-16T13:17:06.447Z,100737.41
2023-11-16T13:19:37.308Z,100727.94
2023-11-16T13:22:06.326Z,100729.19
2023-11-16T13:24:35.412Z,100739.88
2023-11-16T13:27:06.795Z,100741.91
2023-11-16T13:29:40.371Z,100746.09
2023-11-16T13:32:12.090Z,100730.41
2023-11-16T13:34:44.629Z,100741.31
2023-11-16T13:37:13.278Z,100717.28
2023-11-16T13:39:45.219Z,100722.03
2023-11-16T13:42:14.352Z,100724.53
2023-11-16T13:44:43.890Z,100712.75
2023-11-16T13:47:12.679Z,100648.47
2023-11-16T13:49:45.030Z,100723.75
2023-11-16T13:52:14.206Z,100717.44
2023-11-16T13:54:46.121Z,100720.66
2023-11-16T13:57:15.201Z,100714.69
2023-11-16T13:59:46.372Z,100720.41
2023-11-16T14:02:18.341Z,100710.88
2023-11-16T14:04:49.080Z,100716.44
2023-11-16T14:07:18.158Z,100721.97
2023-11-16T14:09:47.244Z,100721.66
2023-11-16T14:12:15.996Z,100720.34
2023-11-16T14:14:45.247Z,100712.00
2023-11-16T14:17:14.815Z,100725.63
2023-11-16T14:19:43.844Z,100706.28
2023-11-16T14:22:14.380Z,100719.94
2023-11-16T14:24:47.498Z,100713.81
2023-11-16T14:27:16.227Z,100716.28
2023-11-16T14:29:45.865Z,100696.00
2023-11-16T14:32:14.810Z,100719.69
2023-11-16T14:34:44.475Z,100685.13
2023-11-16T14:37:15.155Z,100705.97
2023-11-16T14:39:44.588Z,100714.97
2023-11-16T14:42:13.483Z,100718.63
2023-11-16T14:44:42.700Z,100710.19
2023-11-16T14:47:13.736Z,100717.25
2023-11-16T14:49:44.739Z,100712.31
2023-11-16T14:52:17.412Z,100711.44
2023-11-16T14:54:48.128Z,100710.38
2023-11-16T14:57:17.020Z,100689.50
2023-11-16T14:59:47.052Z,100717.44
2023-11-16T15:02:16.220Z,100711.72
2023-11-16T15:04:46.143Z,100697.84
2023-11-16T15:07:18.621Z,100712.28
2023-11-16T15:09:47.869Z,100710.41
2023-11-16T15:12:17.119Z,100715.47
2023-11-16T15:14:46.819Z,100714.66
2023-11-16T15:17:15.729Z,100716.31
2023-11-16T15:19:45.134Z,100709.56
2023-11-16T15:22:13.854Z,100719.25
2023-11-16T15:24:44.484Z,100703.13
2023-11-16T15:27:14.125Z,100717.91
2023-11-16T15:29:47.008Z,100712.00
2023-11-16T15:32:19.461Z,100715.31
2023-11-16T15:34:51.090Z,100706.69
2023-11-16T15:37:22.032Z,100710.59
2023-11-16T15:39:54.623Z,100706.97
2023-11-16T15:42:27.313Z,100704.88
2023-11-16T15:44:56.718Z,100696.72
2023-11-16T15:47:25.555Z,100696.81
2023-11-16T15:49:54.900Z,100698.06
2023-11-16T15:52:24.511Z,100692.97
2023-11-16T15:54:55.275Z,100682.66
2023-11-16T15:57:27.752Z,100693.81
2023-11-16T15:59:59.111Z,100690.63
2023-11-16T16:02:30.815Z,100680.88
2023-11-16T16:05:01.665Z,100620.50
2023-11-16T16:07:33.322Z,100694.84
2023-11-16T16:10:06.639Z,100687.34
2023-11-16T16:12:36.102Z,100679.47
2023-11-16T16:15:07.562Z,100681.44
2023-11-16T16:17:36.921Z,100681.25
2023-11-16T16:20:07.229Z,100688.56
2023-11-16T16:22:36.445Z,100678.72
2023-11-16T16:25:12.830Z,100680.41
2023-11-16T16:27:41.657Z,100675.69
2023-11-16T16:30:14.940Z,100621.94
2023-11-16T16:32:44.769Z,100672.22
2023-11-16T16:35:14.213Z,100674.34
2023-11-16T16:37:42.945Z,100680.72
2023-11-16T16:40:16.115Z,100680.13
2023-11-16T16:42:46.078Z,100676.44
2023-11-16T16:45:16.667Z,100594.97
2023-11-16T16:47:52.945Z,100675.78
2023-11-16T16:50:28.684Z,100661.06
2023-11-16T16:52:57.334Z,100672.53
2023-11-16T16:55:27.962Z,100678.31
2023-11-16T16:57:56.716Z,100686.28
2023-11-16T17:00:27.935Z,100674.56
2023-11-16T17:02:56.820Z,100671.19
2023-11-16T17:05:25.829Z,100664.56
2023-11-16T17:07:54.735Z,100674.13
2023-11-16T17:10:28.283Z,100677.31
2023-11-16T17:12:58.444Z,100672.84
2023-11-16T17:15:32.110Z,100669.38
2023-11-16T17:18:01.414Z,100666.44
2023-11-16T17:20:32.351Z,100672.56
2023-11-16T17:23:01.069Z,100669.84
2023-11-16T17:25:36.196Z,100666.84
2023-11-16T17:28:09.821Z,100662.72
2023-11-16T17:30:39.536Z,100671.25
2023-11-16T17:33:11.215Z,100680.34
2023-11-16T17:35:43.396Z,100676.59
2023-11-16T17:38:12.006Z,100666.09
2023-11-16T17:40:42.932Z,100658.50
2023-11-16T17:43:13.390Z,100672.97
2023-11-16T17:45:42.539Z,100667.81
2023-11-16T17:48:12.535Z,100671.94
2023-11-16T17:50:42.594Z,100676.44
2023-11-16T17:53:13.222Z,100671.28
2023-11-16T17:55:44.134Z,100667.25
2023-11-16T17:58:15.425Z,100678.53
2023-11-16T18:00:44.906Z,100689.97
2023-11-16T18:03:13.997Z,100670.56
2023-11-16T18:05:43.566Z,100686.13
2023-11-16T18:08:13.260Z,100677.41
2023-11-16T18:10:45.441Z,100683.59
2023-11-16T18:13:18.595Z,100669.41
2023-11-16T18:15:48.090Z,100665.00
2023-11-16T18:18:19.431Z,100647.72
2023-11-16T18:20:50.720Z,100681.13
2023-11-16T18:23:21.204Z,100680.47
2023-11-16T18:25:50.730Z,100669.03
2023-11-16T18:28:21.113Z,100676.28
2023-11-16T18:30:53.137Z,100674.97
2023-11-16T18:33:22.954Z,100679.63
2023-11-16T18:35:55.344Z,100675.13
2023-11-16T18:38:25.349Z,100676.38
2023-11-16T18:40:54.814Z,100649.16
2023-11-16T18:43:26.288Z,100667.53
2023-11-16T18:45:56.644Z,100661.94
2023-11-16T18:48:27.280Z,100656.94
2023-11-16T18:50:56.584Z,100669.13
2023-11-16T18:53:25.560Z,100666.41
2023-11-16T18:55:59.287Z,100656.47
2023-11-16T18:58:30.142Z,100667.09
2023-11-16T19:01:00.028Z,100672.03
2023-11-16T19:03:29.365Z,100666.06
2023-11-16T19:05:58.807Z,100678.34
2023-11-16T19:08:27.604Z,100660.63
2023-11-16T19:10:56.836Z,100670.00
2023-11-16T19:13:27.824Z,100636.41
2023-11-16T19:15:59.140Z,100662.13
2023-11-16T19:18:28.460Z,100659.84
2023-11-16T19:20:58.663Z,100686.22
2023-11-16T19:23:28.444Z,100667.56
2023-11-16T19:25:59.820Z,100668.00
2023-11-16T19:28:30.152Z,100678.25
2023-11-16T19:31:01.969Z,100676.66
2023-11-16T19:33:31.272Z,100675.88
2023-11-16T19:36:00.417Z,100676.38
2023-11-16T19:38:31.507Z,100670.00
2023-11-16T19:41:01.997Z,100646.25
2023-11-16T19:43:30.871Z,100668.28
2023-11-16T19:46:04.888Z,100676.16
2023-11-16T19:48:34.562Z,100661.25
2023-11-16T19:51:07.271Z,100669.53
2023-11-16T19:53:36.394Z,100659.56
2023-11-16T19:56:07.276Z,100667.19
2023-11-16T19:58:36.035Z,100661.44
2023-11-16T20:01:07.182Z,100670.56
2023-11-16T20:03:36.324Z,100673.94
2023-11-16T20:06:07.342Z,100678.88
2023-11-16T20:08:36.820Z,100668.56
2023-11-16T20:11:07.294Z,100644.94
2023-11-16T20:13:36.322Z,100681.72
2023-11-16T20:16:11.198Z,100689.13
2023-11-16T20:18:41.790Z,100668.50
2023-11-16T20:21:10.990Z,100671.84
2023-11-16T20:23:40.161Z,100669.25
2023-11-16T20:26:11.506Z,100680.88
2023-11-16T20:28:42.384Z,100685.00
2023-11-16T20:31:13.157Z,100683.84
2023-11-16T20:33:43.053Z,100682.72
2023-11-16T20:36:16.012Z,100672.53
2023-11-16T20:38:45.318Z,100679.84
2023-11-16T20:41:14.064Z,100671.69
2023-11-16T20:43:42.556Z,100677.97
2023-11-16T20:46:13.910Z,100631.34
2023-11-16T20:48:43.240Z,100665.75
2023-11-16T20:51:12.678Z,100677.84
2023-11-16T20:53:42.266Z,100668.38
2023-11-16T20:56:11.908Z,100665.75
2023-11-16T20:58:41.637Z,100664.31
2023-11-16T21:01:11.207Z,100676.41
2023-11-16T21:03:43.767Z,100670.69
2023-11-16T21:06:13.887Z,100651.66
2023-11-16T21:08:44.596Z,100670.31
2023-11-16T21:11:13.988Z,100656.84
2023-11-16T21:13:42.994Z,100659.25
2023-11-16T21:16:12.793Z,100682.75
2023-11-16T21:18:43.058Z,100655.59
2023-11-16T21:21:13.131Z,100660.75
2023-11-16T21:23:44.389Z,100667.31
2023-11-16T21:26:14.185Z,100665.81
2023-11-16T21:28:45.244Z,100674.13
2023-11-16T21:31:15.163Z,100630.41
2023-11-16T21:33:45.802Z,100662.59
2023-11-16T21:36:18.115Z,100665.97
2023-11-16T21:38:46.913Z,100666.06
2023-11-16T21:41:20.953Z,100672.88
2023-11-16T21:43:51.466Z,100669.81
2023-11-16T21:46:20.862Z,100667.38
2023-11-16T21:48:51.121Z,100672.53
2023-11-16T21:51:20.496Z,100670.09
2023-11-16T21:53:49.054Z,100660.63
2023-11-16T21:56:18.245Z,100663.59
2023-11-16T21:58:46.712Z,100672.56
2023-11-16T22:01:17.098Z,100670.41
2023-11-16T22:03:48.416Z,100667.06
2023-11-16T22:06:19.494Z,100637.53
2023-11-16T22:08:48.260Z,100665.16
2023-11-16T22:11:17.630Z,100677.41
2023-11-16T22:13:47.282Z,100675.50
2023-11-16T22:16:16.991Z,100638.16
2023-11-16T22:18:45.657Z,100641.09
2023-11-16T22:21:14.885Z,100670.38
2023-11-16T22:23:44.961Z,100674.22
2023-11-16T22:26:14.517Z,100678.94
2023-11-16T22:28:43.859Z,100666.81
2023-11-16T22:31:14.119Z,100630.78
2023-11-16T22:33:44.219Z,100664.34
2023-11-16T22:36:18.467Z,100668.78
2023-11-16T22:38:51.953Z,100661.53
2023-11-16T22:41:21.194Z,100665.66
2023-11-16T22:43:49.969Z,100665.72
2023-11-16T22:46:19.360Z,100658.44
2023-11-16T22:48:48.877Z,100664.03
2023-11-16T22:51:18.095Z,100666.19
2023-11-16T22:53:46.957Z,100653.19
2023-11-16T22:56:22.625Z,100596.28
2023-11-16T22:58:51.723Z,100642.34
2023-11-16T23:01:23.800Z,100653.03
2023-11-16T23:03:54.131Z,100652.50
2023-11-16T23:06:23.331Z,100637.91
2023-11-16T23:08:53.174Z,100642.88
2023-11-16T23:11:23.529Z,100642.34
2023-11-16T23:13:52.357Z,100634.03
2023-11-16T23:16:21.198Z,100624.09
2023-11-16T23:18:50.873Z,100635.38
2023-11-16T23:21:33.442Z,100636.22
2023-11-16T23:24:10.539Z,100633.94
2023-11-16T23:26:42.526Z,100642.38
2023-11-16T23:29:11.757Z,100637.69
2023-11-16T23:31:41.946Z,100635.78
2023-11-16T23:34:10.902Z,100637.78
2023-11-16T23:36:39.993Z,100638.25
2023-11-16T23:39:08.652Z,100631.50
2023-11-16T23:41:37.696Z,100637.56
2023-11-16T23:44:08.390Z,100644.03
2023-11-16T23:46:37.475Z,100629.56
2023-11-16T23:49:08.618Z,100628.94
2023-11-16T23:51:40.008Z,100643.50
2023-11-16T23:54:09.796Z,100641.31
2023-11-16T23:56:38.820Z,100648.63
2023-11-16T23:59:09.802Z,100640.72
